createdAt,value
2023-03-31T00:00:54.348Z,12.43
2023-03-31T00:03:23.907Z,12.43
2023-03-31T00:05:58.294Z,12.52
2023-03-31T00:08:30.045Z,12.45
2023-03-31T00:11:00.102Z,12.53
2023-03-31T00:13:30.220Z,12.45
2023-03-31T00:15:58.952Z,12.45
2023-03-31T00:18:26.879Z,12.27
2023-03-31T00:20:55.145Z,12.22
2023-03-31T00:23:27.667Z,12.28
2023-03-31T00:25:56.319Z,12.33
2023-03-31T00:28:23.970Z,12.35
2023-03-31T00:30:53.498Z,12.26
2023-03-31T00:33:21.342Z,12.27
2023-03-31T00:35:52.432Z,12.31
2023-03-31T00:38:21.819Z,12.20
2023-03-31T00:40:53.348Z,12.27
2023-03-31T00:43:30.581Z,12.28
2023-03-31T00:46:17.903Z,12.31
2023-03-31T00:48:51.424Z,12.15
2023-03-31T00:51:21.095Z,12.36
2023-03-31T00:53:55.322Z,12.45
2023-03-31T00:56:23.173Z,12.44
2023-03-31T00:58:51.373Z,12.49
2023-03-31T01:01:25.283Z,12.42
2023-03-31T01:03:53.567Z,12.56
2023-03-31T01:06:21.333Z,12.44
2023-03-31T01:08:52.029Z,12.48
2023-03-31T01:11:26.172Z,12.44
2023-03-31T01:13:56.950Z,12.38
2023-03-31T01:16:25.891Z,12.45
2023-03-31T01:18:57.475Z,12.42
2023-03-31T01:22:00.119Z,12.34
2023-03-31T01:25:06.846Z,12.37
2023-03-31T01:27:54.936Z,12.34
2023-03-31T01:31:01.418Z,12.27
2023-03-31T01:33:52.522Z,12.19
2023-03-31T01:37:00.397Z,12.30
2023-03-31T01:40:13.321Z,12.19
2023-03-31T01:42:47.657Z,12.20
2023-03-31T01:45:27.059Z,12.10
2023-03-31T01:48:00.695Z,12.19
2023-03-31T01:50:32.343Z,12.33
2023-03-31T01:53:06.986Z,12.13
2023-03-31T01:55:40.182Z,12.30
2023-03-31T01:58:12.622Z,12.25
2023-03-31T02:00:46.686Z,12.37
2023-03-31T02:03:18.818Z,12.35
2023-03-31T02:05:50.289Z,12.34
2023-03-31T02:08:23.166Z,12.44
2023-03-31T02:10:54.604Z,12.53
2023-03-31T02:13:25.061Z,12.48
2023-03-31T02:15:57.738Z,12.53
2023-03-31T02:18:30.675Z,12.59
2023-03-31T02:21:00.691Z,12.50
2023-03-31T02:23:31.877Z,12.42
2023-03-31T02:26:05.190Z,12.21
2023-03-31T02:28:33.504Z,12.34
2023-03-31T02:31:14.715Z,12.13
2023-03-31T02:33:42.658Z,11.98
2023-03-31T02:36:10.791Z,11.91
2023-03-31T02:38:47.056Z,11.72
2023-03-31T02:41:16.048Z,11.54
2023-03-31T02:43:44.053Z,11.52
2023-03-31T02:46:11.935Z,11.43
2023-03-31T02:48:44.412Z,11.24
2023-03-31T02:52:00.517Z,11.24
2023-03-31T02:55:02.452Z,11.36
2023-03-31T02:57:54.747Z,11.43
2023-03-31T03:00:32.408Z,11.40
2023-03-31T03:03:17.049Z,11.44
2023-03-31T03:05:53.459Z,11.50
2023-03-31T03:08:59.541Z,11.44
2023-03-31T03:11:36.822Z,11.58
2023-03-31T03:14:14.262Z,11.56
2023-03-31T03:16:46.185Z,11.56
2023-03-31T03:19:21.302Z,11.64
2023-03-31T03:21:49.041Z,11.63
2023-03-31T03:24:17.915Z,11.65
2023-03-31T03:26:46.370Z,11.69
2023-03-31T03:29:15.503Z,11.70
2023-03-31T03:31:43.593Z,11.68
2023-03-31T03:34:11.507Z,11.68
2023-03-31T03:36:40.439Z,11.84
2023-03-31T03:39:09.124Z,11.81
2023-03-31T03:41:37.677Z,11.63
2023-03-31T03:44:05.973Z,11.87
2023-03-31T03:46:35.095Z,11.92
2023-03-31T03:49:02.971Z,11.94
2023-03-31T03:51:30.768Z,11.76
2023-03-31T03:53:58.386Z,11.72
2023-03-31T03:56:26.626Z,11.80
2023-03-31T03:58:54.377Z,11.81
2023-03-31T04:01:22.579Z,11.97
2023-03-31T04:03:51.573Z,11.78
2023-03-31T04:06:19.368Z,11.70
2023-03-31T04:08:47.048Z,11.78
2023-03-31T04:11:18.833Z,11.85
2023-03-31T04:13:47.738Z,11.85
2023-03-31T04:16:16.712Z,11.93
2023-03-31T04:18:44.527Z,12.04
2023-03-31T04:21:15.458Z,12.13
2023-03-31T04:23:46.543Z,11.91
2023-03-31T04:26:15.083Z,12.23
2023-03-31T04:28:50.554Z,12.24
2023-03-31T04:31:25.397Z,11.95
2023-03-31T04:33:54.001Z,12.21
2023-03-31T04:36:23.214Z,12.08
2023-03-31T04:38:54.638Z,11.91
2023-03-31T04:41:22.732Z,11.71
2023-03-31T04:43:50.772Z,11.73
2023-03-31T04:46:18.442Z,11.81
2023-03-31T04:48:46.202Z,11.97
2023-03-31T04:51:15.364Z,11.87
2023-03-31T04:53:44.381Z,11.82
2023-03-31T04:56:12.300Z,11.68
2023-03-31T04:58:40.245Z,11.48
2023-03-31T05:01:08.083Z,11.39
2023-03-31T05:03:36.023Z,11.35
2023-03-31T05:06:04.164Z,11.25
2023-03-31T05:08:32.307Z,10.80
2023-03-31T05:11:01.358Z,10.89
2023-03-31T05:13:29.001Z,10.71
2023-03-31T05:15:56.731Z,10.46
2023-03-31T05:18:24.398Z,10.65
2023-03-31T05:20:52.081Z,10.63
2023-03-31T05:23:19.729Z,10.56
2023-03-31T05:25:48.522Z,10.61
2023-03-31T05:28:17.513Z,10.54
2023-03-31T05:30:45.180Z,10.63
2023-03-31T05:33:13.061Z,10.64
2023-03-31T05:35:40.809Z,10.65
2023-03-31T05:38:08.414Z,10.40
2023-03-31T05:40:36.132Z,10.44
2023-03-31T05:43:03.713Z,10.35
2023-03-31T05:45:32.698Z,10.38
2023-03-31T05:48:00.500Z,10.27
2023-03-31T05:50:28.325Z,10.32
2023-03-31T05:52:55.965Z,10.21
2023-03-31T05:55:23.594Z,10.25
2023-03-31T05:57:51.213Z,10.23
2023-03-31T06:00:19.622Z,10.24
2023-03-31T06:02:48.749Z,10.28
2023-03-31T06:05:16.631Z,10.08
2023-03-31T06:07:44.447Z,10.16
2023-03-31T06:10:12.318Z,10.25
2023-03-31T06:12:39.906Z,10.11
2023-03-31T06:15:08.549Z,10.25
2023-03-31T06:17:38.349Z,10.23
2023-03-31T06:20:20.434Z,10.16
2023-03-31T06:22:54.483Z,10.22
2023-03-31T06:25:22.200Z,10.23
2023-03-31T06:27:49.814Z,10.27
2023-03-31T06:30:17.687Z,10.36
2023-03-31T06:32:45.341Z,10.26
2023-03-31T06:35:14.779Z,10.21
2023-03-31T06:37:42.455Z,10.39
2023-03-31T06:40:11.246Z,10.35
2023-03-31T06:42:38.945Z,10.59
2023-03-31T06:45:07.388Z,10.58
2023-03-31T06:47:35.121Z,10.59
2023-03-31T06:50:02.858Z,10.61
2023-03-31T06:52:32.193Z,10.49
2023-03-31T06:55:00.988Z,10.65
2023-03-31T06:57:28.831Z,10.72
2023-03-31T06:59:56.797Z,10.76
2023-03-31T07:02:24.408Z,10.96
2023-03-31T07:04:52.228Z,10.77
2023-03-31T07:07:19.932Z,10.90
2023-03-31T07:09:48.913Z,10.88
2023-03-31T07:12:16.558Z,10.87
2023-03-31T07:14:44.202Z,10.84
2023-03-31T07:17:11.833Z,10.78
2023-03-31T07:19:41.830Z,10.77
2023-03-31T07:22:09.515Z,10.91
2023-03-31T07:24:37.245Z,10.88
2023-03-31T07:27:06.469Z,10.88
2023-03-31T07:29:34.130Z,10.77
2023-03-31T07:32:01.903Z,10.96
2023-03-31T07:34:29.946Z,10.92
2023-03-31T07:36:57.626Z,10.88
2023-03-31T07:39:25.585Z,10.97
2023-03-31T07:41:53.215Z,10.85
2023-03-31T07:44:23.368Z,11.07
2023-03-31T07:46:51.066Z,11.17
2023-03-31T07:49:18.761Z,11.07
2023-03-31T07:51:46.409Z,11.14
2023-03-31T07:54:14.047Z,11.24
2023-03-31T07:56:41.677Z,11.12
2023-03-31T07:59:09.852Z,11.40
2023-03-31T08:01:38.867Z,11.42
2023-03-31T08:04:06.775Z,11.53
2023-03-31T08:06:34.480Z,11.46
2023-03-31T08:09:02.141Z,11.50
2023-03-31T08:11:30.482Z,11.23
2023-03-31T08:13:58.214Z,11.22
2023-03-31T08:16:25.943Z,11.39
2023-03-31T08:18:55.110Z,11.55
2023-03-31T08:21:24.597Z,11.53
2023-03-31T08:23:54.789Z,11.62
2023-03-31T08:26:24.270Z,11.57
2023-03-31T08:28:52.605Z,11.49
2023-03-31T08:31:25.326Z,11.29
2023-03-31T08:33:56.211Z,11.06
2023-03-31T08:36:23.917Z,11.16
2023-03-31T08:38:51.654Z,11.27
2023-03-31T08:41:31.252Z,11.31
2023-03-31T08:44:01.925Z,11.51
2023-03-31T08:46:33.444Z,11.39
2023-03-31T08:49:05.244Z,11.52
2023-03-31T08:51:37.954Z,11.67
2023-03-31T08:54:08.965Z,11.72
2023-03-31T08:56:40.306Z,11.82
2023-03-31T08:59:19.291Z,11.87
2023-03-31T09:01:56.255Z,11.76
2023-03-31T09:04:51.339Z,11.53
2023-03-31T09:07:23.124Z,11.49
2023-03-31T09:09:59.164Z,11.42
2023-03-31T09:12:36.247Z,11.50
2023-03-31T09:15:07.207Z,11.67
2023-03-31T09:17:39.734Z,11.73
2023-03-31T09:20:16.985Z,11.65
2023-03-31T09:22:48.019Z,11.42
2023-03-31T09:25:19.398Z,11.03
2023-03-31T09:27:47.731Z,10.91
2023-03-31T09:30:20.120Z,9.81
2023-03-31T09:32:51.178Z,9.52
2023-03-31T09:35:22.553Z,9.20
2023-03-31T09:37:51.658Z,8.91
2023-03-31T09:40:21.376Z,8.79
2023-03-31T09:42:55.384Z,8.81
2023-03-31T09:45:23.160Z,8.91
2023-03-31T09:47:54.293Z,9.06
2023-03-31T09:50:26.395Z,9.04
2023-03-31T09:52:57.605Z,9.04
2023-03-31T09:55:39.654Z,9.02
2023-03-31T09:58:09.389Z,9.13
2023-03-31T10:00:37.428Z,9.18
2023-03-31T10:03:07.753Z,9.36
2023-03-31T10:05:40.021Z,9.58
2023-03-31T10:08:30.229Z,9.52
2023-03-31T10:11:08.225Z,9.70
2023-03-31T10:13:42.702Z,9.77
2023-03-31T10:16:13.924Z,9.85
2023-03-31T10:18:44.285Z,9.92
2023-03-31T10:21:23.528Z,9.84
2023-03-31T10:23:52.013Z,9.48
2023-03-31T10:26:22.388Z,9.60
2023-03-31T10:28:52.942Z,10.03
2023-03-31T10:31:22.452Z,10.55
2023-03-31T10:33:52.398Z,10.76
2023-03-31T10:36:25.205Z,11.06
2023-03-31T10:38:54.441Z,10.74
2023-03-31T10:41:24.868Z,10.77
2023-03-31T10:43:54.045Z,10.92
2023-03-31T10:46:22.684Z,11.19
2023-03-31T10:48:52.378Z,11.62
2023-03-31T10:51:27.015Z,11.69
2023-03-31T10:53:57.001Z,11.58
2023-03-31T10:56:40.937Z,11.10
2023-03-31T10:59:32.537Z,11.00
2023-03-31T11:02:23.919Z,11.03
2023-03-31T11:05:01.876Z,11.15
2023-03-31T11:07:41.650Z,11.14
2023-03-31T11:10:27.903Z,11.18
2023-03-31T11:13:01.418Z,11.07
2023-03-31T11:15:36.681Z,11.25
2023-03-31T11:18:17.531Z,10.27
2023-03-31T11:20:57.390Z,10.82
2023-03-31T11:23:38.579Z,10.80
2023-03-31T11:26:11.760Z,10.42
2023-03-31T11:28:52.058Z,10.86
2023-03-31T11:31:34.039Z,10.74
2023-03-31T11:34:14.799Z,10.83
2023-03-31T11:37:02.526Z,10.67
2023-03-31T11:39:44.497Z,10.69
2023-03-31T11:42:17.577Z,10.80
2023-03-31T11:44:52.954Z,11.27
2023-03-31T11:47:24.174Z,11.46
2023-03-31T11:49:56.349Z,12.12
2023-03-31T11:52:30.439Z,12.16
2023-03-31T11:55:04.850Z,12.23
2023-03-31T11:57:37.225Z,12.62
2023-03-31T12:00:12.808Z,12.47
2023-03-31T12:02:48.208Z,12.49
2023-03-31T12:05:18.375Z,12.66
2023-03-31T12:07:51.780Z,12.10
2023-03-31T12:10:23.375Z,12.26
2023-03-31T12:12:56.782Z,11.84
2023-03-31T12:15:30.380Z,11.37
2023-03-31T12:18:02.668Z,11.46
2023-03-31T12:20:34.316Z,11.64
2023-03-31T12:23:06.323Z,11.56
2023-03-31T12:25:48.545Z,11.75
2023-03-31T12:28:18.036Z,12.07
2023-03-31T12:30:48.737Z,12.47
2023-03-31T12:33:21.203Z,12.59
2023-03-31T12:36:03.949Z,12.79
2023-03-31T12:38:49.351Z,12.61
2023-03-31T12:41:24.769Z,12.14
2023-03-31T12:44:11.868Z,12.13
2023-03-31T12:47:06.047Z,12.37
2023-03-31T12:49:44.694Z,12.32
2023-03-31T12:52:18.969Z,12.60
2023-03-31T12:55:12.418Z,12.58
2023-03-31T12:57:41.554Z,12.93
2023-03-31T13:00:26.918Z,13.17
2023-03-31T13:03:28.458Z,13.33
2023-03-31T13:05:56.137Z,13.27
2023-03-31T13:08:56.060Z,13.52
2023-03-31T13:11:37.401Z,13.77
2023-03-31T13:14:13.858Z,13.87
2023-03-31T13:16:41.656Z,13.80
2023-03-31T13:19:13.465Z,13.67
2023-03-31T13:21:54.854Z,13.95
2023-03-31T13:24:23.002Z,13.76
2023-03-31T13:26:54.102Z,13.61
2023-03-31T13:29:26.382Z,13.41
2023-03-31T13:32:20.803Z,13.45
2023-03-31T13:34:57.009Z,13.46
2023-03-31T13:37:38.530Z,13.44
2023-03-31T13:40:17.859Z,13.45
2023-03-31T13:43:23.709Z,13.16
2023-03-31T13:46:17.156Z,13.11
2023-03-31T13:48:52.878Z,13.19
2023-03-31T13:51:43.200Z,12.82
2023-03-31T13:54:41.257Z,13.03
2023-03-31T13:57:39.913Z,12.84
2023-03-31T14:00:31.422Z,12.89
2023-03-31T14:03:25.875Z,13.05
2023-03-31T14:05:59.293Z,13.17
2023-03-31T14:08:39.295Z,12.92
2023-03-31T14:11:23.958Z,12.70
2023-03-31T14:14:06.182Z,12.88
2023-03-31T14:16:38.645Z,12.68
2023-03-31T14:19:33.908Z,12.39
2023-03-31T14:22:10.516Z,12.30
2023-03-31T14:24:45.360Z,12.51
2023-03-31T14:27:26.382Z,12.46
2023-03-31T14:30:01.037Z,12.43
2023-03-31T14:32:36.902Z,12.77
2023-03-31T14:35:23.687Z,13.02
2023-03-31T14:37:51.518Z,12.97
2023-03-31T14:40:20.092Z,12.77
2023-03-31T14:42:50.363Z,13.37
2023-03-31T14:45:20.617Z,13.27
2023-03-31T14:47:56.018Z,13.22
2023-03-31T14:50:33.029Z,13.41
2023-03-31T14:53:01.389Z,13.46
2023-03-31T14:55:44.205Z,13.30
2023-03-31T14:58:27.750Z,13.35
2023-03-31T15:00:55.925Z,13.15
2023-03-31T15:03:26.090Z,12.92
2023-03-31T15:05:58.648Z,12.76
2023-03-31T15:08:27.883Z,12.55
2023-03-31T15:11:02.338Z,12.49
2023-03-31T15:13:46.896Z,11.84
2023-03-31T15:16:29.945Z,11.99
2023-03-31T15:18:59.063Z,11.76
2023-03-31T15:21:29.587Z,11.37
2023-03-31T15:23:57.312Z,11.36
2023-03-31T15:26:40.293Z,11.50
2023-03-31T15:29:13.889Z,11.65
2023-03-31T15:31:41.991Z,11.82
2023-03-31T15:34:16.050Z,11.89
2023-03-31T15:36:45.888Z,12.09
2023-03-31T15:39:15.486Z,12.33
2023-03-31T15:41:43.474Z,12.54
2023-03-31T15:44:29.970Z,12.81
2023-03-31T15:47:01.715Z,12.66
2023-03-31T15:49:30.483Z,12.77
2023-03-31T15:52:01.287Z,12.78
2023-03-31T15:54:36.811Z,12.54
2023-03-31T15:57:06.608Z,12.53
2023-03-31T15:59:55.500Z,12.56
2023-03-31T16:02:26.476Z,12.43
2023-03-31T16:04:57.747Z,12.49
2023-03-31T16:07:30.399Z,12.62
2023-03-31T16:10:03.218Z,12.49
2023-03-31T16:12:36.310Z,12.09
2023-03-31T16:15:08.406Z,12.16
2023-03-31T16:17:39.653Z,12.00
2023-03-31T16:20:12.057Z,12.12
2023-03-31T16:22:44.560Z,11.90
2023-03-31T16:25:15.360Z,11.91
2023-03-31T16:27:46.668Z,12.06
2023-03-31T16:30:16.773Z,11.97
2023-03-31T16:33:02.487Z,11.86
2023-03-31T16:35:36.802Z,11.86
2023-03-31T16:38:06.117Z,11.82
2023-03-31T16:40:37.380Z,11.86
2023-03-31T16:43:12.726Z,11.92
2023-03-31T16:45:40.763Z,11.95
2023-03-31T16:48:16.425Z,11.77
2023-03-31T16:50:45.981Z,11.87
2023-03-31T16:53:16.267Z,11.84
2023-03-31T16:55:44.238Z,11.71
2023-03-31T16:58:11.977Z,11.90
2023-03-31T17:00:40.330Z,11.86
2023-03-31T17:03:09.848Z,11.66
2023-03-31T17:05:39.880Z,11.74
2023-03-31T17:08:08.292Z,11.79
2023-03-31T17:10:38.228Z,11.80
2023-03-31T17:13:06.694Z,11.86
2023-03-31T17:15:36.628Z,11.68
2023-03-31T17:18:05.116Z,11.85
2023-03-31T17:20:34.162Z,11.78
2023-03-31T17:23:02.304Z,11.14
2023-03-31T17:25:30.524Z,11.73
2023-03-31T17:28:00.567Z,11.67
2023-03-31T17:30:28.556Z,11.63
2023-03-31T17:32:56.383Z,11.59
2023-03-31T17:35:24.543Z,11.60
2023-03-31T17:37:53.791Z,11.60
2023-03-31T17:40:22.375Z,11.55
2023-03-31T17:42:50.117Z,11.63
2023-03-31T17:45:19.342Z,11.52
2023-03-31T17:47:47.021Z,11.41
2023-03-31T17:50:14.685Z,11.60
2023-03-31T17:52:42.256Z,11.54
2023-03-31T17:55:10.731Z,11.39
2023-03-31T17:57:40.217Z,11.43
2023-03-31T18:00:09.902Z,11.37
2023-03-31T18:02:39.349Z,11.36
2023-03-31T18:05:08.301Z,11.27
2023-03-31T18:07:36.740Z,11.25
2023-03-31T18:10:06.223Z,10.65
2023-03-31T18:12:34.875Z,11.03
2023-03-31T18:15:03.926Z,11.18
2023-03-31T18:17:31.740Z,11.00
2023-03-31T18:20:00.730Z,11.02
2023-03-31T18:22:28.745Z,11.05
2023-03-31T18:24:56.458Z,11.02
2023-03-31T18:27:25.241Z,10.91
2023-03-31T18:29:53.230Z,11.08
2023-03-31T18:32:21.228Z,11.08
2023-03-31T18:34:49.224Z,10.95
2023-03-31T18:37:18.313Z,10.90
2023-03-31T18:39:46.269Z,10.93
2023-03-31T18:42:13.930Z,10.84
2023-03-31T18:44:41.580Z,10.86
2023-03-31T18:47:09.258Z,10.89
2023-03-31T18:49:36.902Z,10.87
2023-03-31T18:52:05.470Z,10.65
2023-03-31T18:54:34.500Z,10.80
2023-03-31T18:57:02.867Z,10.70
2023-03-31T18:59:30.620Z,10.61
2023-03-31T19:01:58.332Z,10.66
2023-03-31T19:04:26.946Z,10.53
2023-03-31T19:06:55.857Z,10.56
2023-03-31T19:09:26.020Z,10.51
2023-03-31T19:11:54.988Z,10.47
2023-03-31T19:14:22.744Z,10.54
2023-03-31T19:16:50.525Z,10.41
2023-03-31T19:19:18.182Z,10.48
2023-03-31T19:21:45.897Z,10.30
2023-03-31T19:24:13.611Z,10.44
2023-03-31T19:26:41.336Z,10.27
2023-03-31T19:29:10.479Z,10.17
2023-03-31T19:31:40.470Z,10.16
2023-03-31T19:34:11.475Z,10.33
2023-03-31T19:36:40.140Z,10.24
2023-03-31T19:39:08.029Z,10.35
2023-03-31T19:41:36.432Z,10.33
2023-03-31T19:44:04.187Z,10.18
2023-03-31T19:46:33.245Z,10.24
2023-03-31T19:49:01.359Z,10.21
2023-03-31T19:51:29.137Z,10.21
2023-03-31T19:53:57.391Z,10.19
2023-03-31T19:56:26.976Z,10.41
2023-03-31T19:58:54.739Z,10.40
2023-03-31T20:01:25.912Z,10.39
2023-03-31T20:03:55.951Z,10.44
2023-03-31T20:06:25.682Z,10.44
2023-03-31T20:08:55.366Z,10.43
2023-03-31T20:11:24.253Z,10.23
2023-03-31T20:13:52.007Z,10.27
2023-03-31T20:16:21.305Z,10.32
2023-03-31T20:18:53.226Z,10.40
2023-03-31T20:21:24.406Z,10.28
2023-03-31T20:23:52.027Z,10.49
2023-03-31T20:26:21.446Z,10.49
2023-03-31T20:28:49.177Z,10.58
2023-03-31T20:31:19.183Z,10.63
2023-03-31T20:33:47.865Z,10.59
2023-03-31T20:36:18.068Z,10.49
2023-03-31T20:38:48.367Z,10.42
2023-03-31T20:41:16.845Z,10.54
2023-03-31T20:43:45.124Z,10.48
2023-03-31T20:46:12.926Z,10.55
2023-03-31T20:48:42.978Z,10.49
2023-03-31T20:51:12.720Z,10.61
2023-03-31T20:53:42.824Z,10.56
2023-03-31T20:56:13.870Z,10.57
2023-03-31T20:58:44.229Z,10.47
2023-03-31T21:01:13.105Z,10.51
2023-03-31T21:03:42.196Z,10.27
2023-03-31T21:06:14.373Z,10.35
2023-03-31T21:08:45.287Z,10.33
2023-03-31T21:11:14.885Z,10.35
2023-03-31T21:13:44.653Z,10.22
2023-03-31T21:16:13.048Z,10.31
2023-03-31T21:18:40.759Z,10.28
2023-03-31T21:21:10.179Z,10.26
2023-03-31T21:23:37.978Z,10.38
2023-03-31T21:26:08.214Z,10.30
2023-03-31T21:28:39.012Z,10.26
2023-03-31T21:31:09.009Z,10.28
2023-03-31T21:33:39.329Z,10.33
2023-03-31T21:36:09.419Z,10.32
2023-03-31T21:38:37.797Z,10.37
2023-03-31T21:41:07.355Z,10.33
2023-03-31T21:43:37.228Z,10.38
2023-03-31T21:46:04.919Z,10.37
2023-03-31T21:48:33.255Z,10.40
2023-03-31T21:51:02.753Z,10.29
2023-03-31T21:53:32.034Z,10.24
2023-03-31T21:56:00.232Z,10.22
2023-03-31T21:58:29.995Z,10.16
2023-03-31T22:01:01.114Z,10.35
2023-03-31T22:03:31.996Z,10.36
2023-03-31T22:06:00.793Z,10.43
2023-03-31T22:08:29.527Z,10.25
2023-03-31T22:10:58.267Z,10.27
2023-03-31T22:13:25.993Z,10.27
2023-03-31T22:15:54.494Z,10.29
2023-03-31T22:18:23.730Z,10.24
2023-03-31T22:20:51.623Z,10.23
2023-03-31T22:23:20.511Z,10.16
2023-03-31T22:25:48.553Z,10.30
2023-03-31T22:28:17.056Z,10.40
2023-03-31T22:30:44.930Z,10.40
2023-03-31T22:33:12.731Z,10.40
2023-03-31T22:35:41.726Z,10.36
2023-03-31T22:38:09.413Z,10.42
2023-03-31T22:40:37.156Z,10.51
2023-03-31T22:43:05.033Z,10.37
2023-03-31T22:45:32.978Z,10.45
2023-03-31T22:48:00.914Z,10.41
2023-03-31T22:50:28.610Z,10.48
2023-03-31T22:52:57.661Z,10.26
2023-03-31T22:55:25.418Z,10.40
2023-03-31T22:57:53.064Z,10.36
2023-03-31T23:00:20.850Z,10.36
2023-03-31T23:02:48.533Z,10.33
2023-03-31T23:05:16.855Z,10.35
2023-03-31T23:07:44.732Z,10.45
2023-03-31T23:10:13.834Z,10.28
2023-03-31T23:12:44.603Z,10.26
2023-03-31T23:15:12.936Z,10.27
2023-03-31T23:17:40.814Z,10.28
2023-03-31T23:20:09.197Z,10.30
2023-03-31T23:22:36.891Z,10.24
2023-03-31T23:25:05.151Z,10.24
2023-03-31T23:27:34.190Z,10.20
2023-03-31T23:30:01.830Z,10.24
2023-03-31T23:32:29.496Z,10.22
2023-03-31T23:34:57.173Z,10.00
2023-03-31T23:37:24.801Z,10.21
2023-03-31T23:39:52.695Z,10.17
2023-03-31T23:42:20.800Z,10.19
2023-03-31T23:44:49.787Z,10.19
2023-03-31T23:47:17.578Z,10.17
2023-03-31T23:49:45.534Z,10.17
2023-03-31T23:52:14.024Z,10.20
2023-03-31T23:54:42.200Z,10.14
2023-03-31T23:57:09.912Z,10.28
2023-03-31T23:59:37.728Z,10.16
